createdAt,value
2023-04-07T00:05:20.041Z,101200.09
2023-04-07T00:10:41.683Z,101201.50
2023-04-07T00:16:03.988Z,101203.53
2023-04-07T00:21:27.761Z,101196.88
2023-04-07T00:26:50.116Z,101196.44
2023-04-07T00:32:12.111Z,101212.41
2023-04-07T00:37:34.923Z,101196.00
2023-04-07T00:42:57.350Z,101202.50
2023-04-07T00:48:19.984Z,101187.22
2023-04-07T00:53:42.933Z,101214.75
2023-04-07T00:59:06.386Z,101205.44
2023-04-07T01:05:03.026Z,101197.44
2023-04-07T01:10:34.732Z,101216.63
2023-04-07T01:16:06.492Z,101209.16
2023-04-07T01:21:38.050Z,101205.00
2023-04-07T01:27:14.108Z,101211.91
2023-04-07T01:32:38.538Z,101235.00
2023-04-07T01:38:01.984Z,101231.09
2023-04-07T01:43:26.887Z,101234.47
2023-04-07T01:48:50.059Z,101228.53
2023-04-07T01:54:12.824Z,101211.47
2023-04-07T01:59:35.285Z,101232.19
2023-04-07T02:05:07.292Z,101225.38
2023-04-07T02:10:37.183Z,101239.69
2023-04-07T02:15:59.825Z,101226.53
2023-04-07T02:21:23.404Z,101238.16
2023-04-07T02:26:45.549Z,101247.09
2023-04-07T02:32:07.627Z,101225.69
2023-04-07T02:37:30.173Z,101201.03
2023-04-07T02:42:53.295Z,101221.13
2023-04-07T02:48:19.819Z,101221.84
2023-04-07T02:53:42.650Z,101254.66
2023-04-07T02:59:08.660Z,101226.75
2023-04-07T03:04:37.444Z,101222.47
2023-04-07T03:10:00.757Z,101229.94
2023-04-07T03:15:30.398Z,101234.97
2023-04-07T03:21:09.501Z,101233.13
2023-04-07T03:26:35.694Z,101263.69
2023-04-07T03:32:05.793Z,101275.06
2023-04-07T03:37:28.104Z,101287.75
2023-04-07T03:42:51.145Z,101295.22
2023-04-07T03:48:13.292Z,101297.38
2023-04-07T03:53:47.782Z,101287.16
2023-04-07T05:51:34.794Z,101356.28
2023-04-07T05:57:03.084Z,101358.28
2023-04-07T06:02:27.836Z,101351.97
2023-04-07T06:07:51.834Z,101370.28
2023-04-07T06:13:14.105Z,101387.25
2023-04-07T06:18:37.701Z,101383.47
2023-04-07T06:24:01.896Z,101356.06
2023-04-07T06:29:27.120Z,101377.09
2023-04-07T06:34:51.231Z,101376.66
2023-04-07T06:40:13.096Z,101378.00
2023-04-07T06:45:35.150Z,101384.94
2023-04-07T06:50:56.977Z,101387.16
2023-04-07T06:56:19.595Z,101376.13
2023-04-07T07:01:42.771Z,101376.16
2023-04-07T07:07:04.962Z,101372.94
2023-04-07T07:12:26.983Z,101358.69
2023-04-07T07:17:48.603Z,101374.50
2023-04-07T07:23:10.970Z,101378.25
2023-04-07T07:28:32.782Z,101379.78
2023-04-07T07:33:56.749Z,101358.94
2023-04-07T07:39:19.187Z,101362.75
2023-04-07T07:44:41.753Z,101367.78
2023-04-07T07:50:06.296Z,101355.91
2023-04-07T07:55:28.492Z,101342.38
2023-04-07T08:00:51.310Z,101359.81
2023-04-07T08:06:13.697Z,101341.88
2023-04-07T08:11:35.793Z,101330.41
2023-04-07T08:16:58.460Z,101340.84
2023-04-07T08:22:21.864Z,101345.44
2023-04-07T08:27:46.840Z,101348.75
2023-04-07T08:33:11.829Z,101334.56
2023-04-07T08:38:34.121Z,101335.75
2023-04-07T08:43:58.663Z,101345.06
2023-04-07T08:49:22.331Z,101359.69
2023-04-07T08:54:44.925Z,101351.94
2023-04-07T09:00:09.825Z,101360.06
2023-04-07T09:05:33.512Z,101359.91
2023-04-07T09:10:57.595Z,101356.19
2023-04-07T09:16:20.131Z,101321.91
2023-04-07T09:21:53.036Z,101349.13
2023-04-07T09:27:21.711Z,101337.81
2023-04-07T09:32:44.129Z,101348.47
2023-04-07T09:38:08.430Z,101349.16
2023-04-07T09:43:30.508Z,101339.25
2023-04-07T09:49:07.918Z,101338.78
2023-04-07T09:54:36.673Z,101340.94
2023-04-07T10:00:00.052Z,101342.97
2023-04-07T10:05:23.253Z,101327.97
2023-04-07T10:10:46.642Z,101318.44
2023-04-07T10:16:08.970Z,101328.91
2023-04-07T10:21:33.023Z,101327.41
2023-04-07T10:26:58.531Z,101328.03
2023-04-07T10:32:31.167Z,101290.63
2023-04-07T10:38:12.710Z,101328.03
2023-04-07T10:43:42.452Z,101304.63
2023-04-07T10:49:10.893Z,101281.63
2023-04-07T10:54:34.855Z,101300.50
2023-04-07T11:00:12.179Z,101332.81
2023-04-07T11:05:34.138Z,101290.53
2023-04-07T11:10:56.498Z,101293.53
2023-04-07T11:16:20.441Z,101324.00
2023-04-07T11:21:45.601Z,101316.88
2023-04-07T11:27:13.475Z,101321.63
2023-04-07T11:32:35.761Z,101315.03
2023-04-07T11:38:02.313Z,101327.28
2023-04-07T11:43:27.666Z,101280.91
2023-04-07T11:48:49.843Z,101308.84
2023-04-07T11:54:12.382Z,101305.66
2023-04-07T11:59:34.309Z,101287.81
2023-04-07T12:04:57.927Z,101302.28
2023-04-07T12:10:26.261Z,101305.59
2023-04-07T12:15:48.766Z,101285.00
2023-04-07T12:21:10.402Z,101287.31
2023-04-07T12:26:32.470Z,101284.56
2023-04-07T12:31:54.361Z,101277.25
2023-04-07T12:37:16.811Z,101281.13
2023-04-07T12:42:38.452Z,101261.81
2023-04-07T12:48:01.142Z,101267.91
2023-04-07T12:53:23.463Z,101268.91
2023-04-07T12:58:45.237Z,101263.22
2023-04-07T13:04:08.103Z,101265.13
2023-04-07T13:09:29.867Z,101286.16
2023-04-07T13:14:59.755Z,101259.06
2023-04-07T13:20:23.249Z,101241.00
2023-04-07T13:25:44.817Z,101273.78
2023-04-07T13:31:07.052Z,101283.63
2023-04-07T13:36:29.575Z,101265.03
2023-04-07T13:41:51.376Z,101265.66
2023-04-07T13:47:15.410Z,101271.16
2023-04-07T13:52:38.012Z,101267.09
2023-04-07T13:57:59.884Z,101260.03
2023-04-07T14:03:22.060Z,101265.47
2023-04-07T14:08:44.384Z,101270.28
2023-04-07T14:14:07.198Z,101267.06
2023-04-07T14:19:29.332Z,101261.84
2023-04-07T14:24:51.262Z,101263.84
2023-04-07T14:30:13.593Z,101260.25
2023-04-07T14:35:38.192Z,101268.28
2023-04-07T14:41:09.803Z,101273.81
2023-04-07T14:46:35.017Z,101263.41
2023-04-07T14:51:57.849Z,101222.00
2023-04-07T14:57:20.363Z,101254.13
2023-04-07T15:02:43.119Z,101238.34
2023-04-07T15:08:06.538Z,101233.13
2023-04-07T15:19:34.377Z,101257.75
2023-04-07T15:24:56.574Z,101272.06
2023-04-07T15:30:18.411Z,101261.28
2023-04-07T15:35:44.510Z,101278.91
2023-04-07T15:41:07.283Z,101276.38
2023-04-07T15:46:29.419Z,101288.63
2023-04-07T15:51:51.772Z,101295.00
2023-04-07T15:57:13.675Z,101296.06
2023-04-07T16:02:36.609Z,101291.53
2023-04-07T16:07:58.655Z,101308.66
2023-04-07T16:13:20.539Z,101301.25
2023-04-07T16:18:42.469Z,101310.31
2023-04-07T16:24:04.554Z,101306.47
2023-04-07T16:29:26.605Z,101331.06
2023-04-07T16:34:49.790Z,101338.97
2023-04-07T16:40:12.252Z,101341.16
2023-04-07T16:45:34.812Z,101344.16
2023-04-07T16:50:56.621Z,101344.44
2023-04-07T16:56:23.868Z,101337.59
2023-04-07T17:01:46.591Z,101359.34
2023-04-07T17:07:09.957Z,101358.97
2023-04-07T17:12:31.821Z,101331.81
2023-04-07T17:17:53.946Z,101335.69
2023-04-07T17:23:15.842Z,101359.88
2023-04-07T17:28:37.761Z,101369.91
2023-04-07T17:33:59.995Z,101372.34
2023-04-07T17:39:22.400Z,101371.94
2023-04-07T17:44:46.373Z,101393.41
2023-04-07T17:50:09.672Z,101384.59
2023-04-07T17:55:31.488Z,101390.50
2023-04-07T18:00:53.888Z,101385.75
2023-04-07T18:06:19.352Z,101400.03
2023-04-07T18:11:44.893Z,101398.13
2023-04-07T18:17:06.968Z,101376.22
2023-04-07T18:22:29.107Z,101398.28
2023-04-07T18:27:51.453Z,101393.34
2023-04-07T18:33:16.412Z,101383.47
2023-04-07T18:38:39.211Z,101377.66
2023-04-07T18:44:04.840Z,101402.03
2023-04-07T18:49:28.505Z,101382.50
2023-04-07T18:54:53.926Z,101386.94
2023-04-07T19:00:16.934Z,101370.94
2023-04-07T19:05:42.781Z,101378.25
2023-04-07T19:11:09.683Z,101378.19
2023-04-07T19:16:43.588Z,101360.72
2023-04-07T19:22:13.366Z,101374.81
2023-04-07T19:27:36.850Z,101392.88
2023-04-07T19:33:05.919Z,101365.34
2023-04-07T19:38:28.870Z,101366.34
2023-04-07T19:43:52.244Z,101363.66
2023-04-07T19:49:15.135Z,101373.81
2023-04-07T19:54:38.093Z,101364.56
2023-04-07T20:00:03.161Z,101371.34
2023-04-07T20:05:56.805Z,101419.34
2023-04-07T20:11:24.785Z,101425.41
2023-04-07T20:16:50.751Z,101390.88
2023-04-07T20:22:14.685Z,101436.78
2023-04-07T20:27:37.542Z,101385.50
2023-04-07T20:33:00.559Z,101434.63
2023-04-07T20:38:22.820Z,101445.22
2023-04-07T20:43:45.042Z,101424.63
2023-04-07T20:49:08.592Z,101433.53
2023-04-07T20:54:30.920Z,101457.53
2023-04-07T20:59:53.279Z,101438.09
2023-04-07T21:05:19.925Z,101449.34
2023-04-07T21:10:43.464Z,101449.97
2023-04-07T21:16:06.311Z,101453.63
2023-04-07T21:21:29.315Z,101463.47
2023-04-07T21:26:55.005Z,101438.81
2023-04-07T21:32:17.816Z,101445.38
2023-04-07T21:37:40.465Z,101454.81
2023-04-07T21:43:02.843Z,101469.59
2023-04-07T21:48:28.040Z,101442.22
2023-04-07T21:53:50.631Z,101449.53
2023-04-07T21:59:14.051Z,101471.88
2023-04-07T22:04:36.728Z,101469.44
2023-04-07T22:10:00.545Z,101445.34
2023-04-07T22:15:23.076Z,101459.84
2023-04-07T22:20:45.879Z,101443.31
2023-04-07T22:26:09.030Z,101434.19
2023-04-07T22:31:31.495Z,101457.94
2023-04-07T22:36:53.989Z,101459.03
2023-04-07T22:42:15.983Z,101448.34
2023-04-07T22:47:39.687Z,101460.56
2023-04-07T22:53:01.981Z,101459.66
2023-04-07T22:58:23.879Z,101459.66
2023-04-07T23:03:46.220Z,101450.53
2023-04-07T23:09:08.339Z,101458.19
2023-04-07T23:14:30.375Z,101445.22
2023-04-07T23:19:52.357Z,101462.38
2023-04-07T23:25:14.474Z,101438.38
2023-04-07T23:30:38.082Z,101450.63
2023-04-07T23:36:00.427Z,101440.47
2023-04-07T23:41:23.684Z,101454.00
2023-04-07T23:46:45.594Z,101443.84
2023-04-07T23:52:08.190Z,101442.56
2023-04-07T23:57:30.521Z,101454.41
